Independence — WDF3297 — position and weather

sailwx.info

Track history (hours):
 
Tides and Currents Weather Stations Pressure Air Temp Water Temp Dewpoint Dewpoint Depression Visibility Wind Speed Wind Dir Waves Ship Positions

Independence

Owner: American Cruise Lines Inc., Delmar, DE. More information available from US FCC via Universal Licensing System and Coast Guard Vessel Documentation Center.

Last reported at 2017-Jan-02 13:26 UTC. Time now 2017-Feb-21 19:04 UTC.
Position N 31°51' W 081°08'.
Warning: this ship's position is 50 days out of date.

Length 65 m; draft 2.5 m.

Type: Passenger vessel. MMSI: 367438210.

Date/timePositionNaut miles runAvg speedWind from/ knotsBaromVisibWave heightAir tempDewpointWater temp
2017-Jan-02 13:26N 31°51' W 081°08'5 5.7
2017-Jan-02 12:33N 31°56' W 081°05'5 5.1
2017-Jan-02 11:33N 31°59' W 081°02'4 4.1
2017-Jan-02 10:33N 32°04' W 081°02'2 2.4
2017-Jan-02 09:33N 32°06' W 081°01'4 4.0
2017-Jan-02 08:33N 32°05' W 081°06'0 0.0
2017-Jan-02 06:33N 32°05' W 081°06'0 0.0
2017-Jan-02 05:27N 32°05' W 081°06'0 0.0
2017-Jan-02 04:27N 32°05' W 081°06'0 0.0
2017-Jan-02 03:15N 32°05' W 081°06'0 0.0
2017-Jan-02 02:15N 32°05' W 081°06'0 0.0
2017-Jan-02 01:15N 32°05' W 081°06'0 0.0
2017-Jan-02 00:33N 32°05' W 081°06'0 0.0
2017-Jan-01 22:33N 32°05' W 081°06'0 0.0
2017-Jan-01 21:15N 32°05' W 081°06'0 0.0
2017-Jan-01 20:33N 32°05' W 081°06'0 0.0
2017-Jan-01 19:27N 32°05' W 081°06'0 0.0
2017-Jan-01 18:33N 32°05' W 081°06'0 0.0
2017-Jan-01 17:21N 32°05' W 081°06'0 0.0
2017-Jan-01 16:33N 32°05' W 081°06'0 0.0
2017-Jan-01 15:15N 32°05' W 081°06'0 0.0
2017-Jan-01 14:33N 32°05' W 081°06'0 0.0
2017-Jan-01 13:33N 32°05' W 081°06'0 0.0
2017-Jan-01 12:33N 32°05' W 081°06'0 0.0
2017-Jan-01 11:27N 32°05' W 081°06'0 0.0
2017-Jan-01 10:27N 32°05' W 081°06'0 0.0
2017-Jan-01 09:27N 32°05' W 081°06'0 0.0
2017-Jan-01 08:21N 32°05' W 081°06'0 0.0
2017-Jan-01 07:33N 32°05' W 081°06'0 0.0
2017-Jan-01 06:21N 32°05' W 081°06'0 0.0
2017-Jan-01 05:33N 32°05' W 081°06'0 0.0
2017-Jan-01 04:27N 32°05' W 081°06'0 0.0
2017-Jan-01 03:27N 32°05' W 081°06'0 0.0
2017-Jan-01 02:33N 32°05' W 081°06'0 0.0
2017-Jan-01 01:33N 32°05' W 081°06'0 0.0
2017-Jan-01 00:33N 32°05' W 081°06'0 0.0
2016-Dec-31 23:33N 32°05' W 081°06'0 0.0
2016-Dec-31 22:33N 32°05' W 081°06'0 0.0
2016-Dec-31 21:21N 32°05' W 081°06'0 0.0
2016-Dec-31 20:33N 32°05' W 081°06'3 2.6
2016-Dec-31 19:33N 32°05' W 081°03'6 6.1
2016-Dec-31 18:33N 32°05' W 080°55'6 5.9
2016-Dec-31 17:33N 32°09' W 080°50'1 0.9
2016-Dec-31 16:27N 32°08' W 080°49'0 0.0
2016-Dec-31 15:33N 32°08' W 080°49'0 0.0
2016-Dec-31 14:27N 32°08' W 080°49'0 0.0
2016-Dec-31 13:27N 32°08' W 080°49'4 5.0
2016-Dec-31 12:33N 32°13' W 080°47'7 7.3
2016-Dec-31 11:33N 32°16' W 080°40'  
2016-Dec-25 22:25N 32°14' W 080°47'5 1.8
2016-Dec-25 19:24N 32°08' W 080°49'0 0.0
2016-Dec-25 18:12N 32°08' W 080°49'0 0.0
2016-Dec-25 17:30N 32°08' W 080°49'0 0.0
2016-Dec-25 15:30N 32°08' W 080°49'0 0.0
2016-Dec-25 14:28N 32°08' W 080°49'5 5.3
2016-Dec-25 13:29N 32°06' W 080°54'6 6.2
2016-Dec-25 12:33N 32°06' W 081°01'4 2.9
2016-Dec-25 11:15N 32°05' W 081°06'0 0.0
2016-Dec-25 10:27N 32°05' W 081°06'0 0.0
2016-Dec-25 09:27N 32°05' W 081°06'0 0.0
2016-Dec-25 08:33N 32°05' W 081°06'0 0.0
2016-Dec-25 07:27N 32°05' W 081°06'0 0.0
2016-Dec-25 06:33N 32°05' W 081°06'0 0.0
2016-Dec-25 05:21N 32°05' W 081°06'0 0.0
2016-Dec-25 04:33N 32°05' W 081°06'0 0.0
2016-Dec-25 03:27N 32°05' W 081°06'0 0.0
2016-Dec-25 02:33N 32°05' W 081°06'0 0.0
2016-Dec-25 01:33N 32°05' W 081°06'0 0.0
2016-Dec-25 00:33N 32°05' W 081°06'0 0.0
2016-Dec-24 23:27N 32°05' W 081°06'0 0.0
2016-Dec-24 22:27N 32°05' W 081°06'0 0.0
2016-Dec-24 21:33N 32°05' W 081°06'0 0.0
2016-Dec-24 20:33N 32°05' W 081°06'0 0.0
2016-Dec-24 19:27N 32°05' W 081°06'0 0.0
2016-Dec-24 18:33N 32°05' W 081°06'0 0.0
2016-Dec-24 17:33N 32°05' W 081°06'0 0.0
2016-Dec-24 16:33N 32°05' W 081°06'0 0.0
2016-Dec-24 15:33N 32°05' W 081°06'0 0.0
2016-Dec-24 14:33N 32°05' W 081°06'0 0.0
2016-Dec-24 13:33N 32°05' W 081°06'0 0.0
2016-Dec-24 12:33N 32°05' W 081°06'0 0.0
2016-Dec-24 11:33N 32°05' W 081°06'0 0.0
2016-Dec-24 10:33N 32°05' W 081°06'0 0.0
2016-Dec-24 09:27N 32°05' W 081°06'0 0.0
2016-Dec-24 08:33N 32°05' W 081°06'0 0.0
2016-Dec-24 07:09N 32°05' W 081°06'0 0.0
2016-Dec-24 06:21N 32°05' W 081°06'0 0.0
2016-Dec-24 05:33N 32°05' W 081°06'0 0.0
2016-Dec-24 04:09N 32°05' W 081°06'0 0.0
2016-Dec-24 03:33N 32°05' W 081°06'0 0.0
2016-Dec-24 01:09N 32°05' W 081°06'0 0.0
2016-Dec-24 00:09N 32°05' W 081°06'0 0.0
2016-Dec-23 23:33N 32°05' W 081°06'5 5.4
2016-Dec-23 22:33N 32°05' W 080°59'4 4.1
2016-Dec-23 21:33N 32°02' W 081°03'4 4.3
2016-Dec-23 20:33N 31°58' W 081°03'6 5.8
2016-Dec-23 19:34N 31°52' W 081°05'5 5.4
2016-Dec-23 18:33N 31°49' W 081°10'  
Track history (hours):
 
Tides and Currents Weather Stations Pressure Air Temp Water Temp Dewpoint Dewpoint Depression Visibility Wind Speed Wind Dir Waves Ship Positions

Independence

Owner: American Cruise Lines Inc., Delmar, DE. More information available from US FCC via Universal Licensing System and Coast Guard Vessel Documentation Center.

Last reported at 2017-Jan-02 13:26 UTC. Time now 2017-Feb-21 19:04 UTC.
Position N 31°51' W 081°08'.
Warning: this ship's position is 50 days out of date.

Length 65 m; draft 2.5 m.

Type: Passenger vessel. MMSI: 367438210.

Date/timePositionNaut miles runAvg speedWind from/ knotsBaromVisibWave heightAir tempDewpointWater temp
2017-Jan-02 13:26N 31°51' W 081°08'5 5.7
2017-Jan-02 12:33N 31°56' W 081°05'5 5.1
2017-Jan-02 11:33N 31°59' W 081°02'4 4.1
2017-Jan-02 10:33N 32°04' W 081°02'2 2.4
2017-Jan-02 09:33N 32°06' W 081°01'4 4.0
2017-Jan-02 08:33N 32°05' W 081°06'0 0.0
2017-Jan-02 06:33N 32°05' W 081°06'0 0.0
2017-Jan-02 05:27N 32°05' W 081°06'0 0.0
2017-Jan-02 04:27N 32°05' W 081°06'0 0.0
2017-Jan-02 03:15N 32°05' W 081°06'0 0.0
2017-Jan-02 02:15N 32°05' W 081°06'0 0.0
2017-Jan-02 01:15N 32°05' W 081°06'0 0.0
2017-Jan-02 00:33N 32°05' W 081°06'0 0.0
2017-Jan-01 22:33N 32°05' W 081°06'0 0.0
2017-Jan-01 21:15N 32°05' W 081°06'0 0.0
2017-Jan-01 20:33N 32°05' W 081°06'0 0.0
2017-Jan-01 19:27N 32°05' W 081°06'0 0.0
2017-Jan-01 18:33N 32°05' W 081°06'0 0.0
2017-Jan-01 17:21N 32°05' W 081°06'0 0.0
2017-Jan-01 16:33N 32°05' W 081°06'0 0.0
2017-Jan-01 15:15N 32°05' W 081°06'0 0.0
2017-Jan-01 14:33N 32°05' W 081°06'0 0.0
2017-Jan-01 13:33N 32°05' W 081°06'0 0.0
2017-Jan-01 12:33N 32°05' W 081°06'0 0.0
2017-Jan-01 11:27N 32°05' W 081°06'0 0.0
2017-Jan-01 10:27N 32°05' W 081°06'0 0.0
2017-Jan-01 09:27N 32°05' W 081°06'0 0.0
2017-Jan-01 08:21N 32°05' W 081°06'0 0.0
2017-Jan-01 07:33N 32°05' W 081°06'0 0.0
2017-Jan-01 06:21N 32°05' W 081°06'0 0.0
2017-Jan-01 05:33N 32°05' W 081°06'0 0.0
2017-Jan-01 04:27N 32°05' W 081°06'0 0.0
2017-Jan-01 03:27N 32°05' W 081°06'0 0.0
2017-Jan-01 02:33N 32°05' W 081°06'0 0.0
2017-Jan-01 01:33N 32°05' W 081°06'0 0.0
2017-Jan-01 00:33N 32°05' W 081°06'0 0.0
2016-Dec-31 23:33N 32°05' W 081°06'0 0.0
2016-Dec-31 22:33N 32°05' W 081°06'0 0.0
2016-Dec-31 21:21N 32°05' W 081°06'0 0.0
2016-Dec-31 20:33N 32°05' W 081°06'3 2.6
2016-Dec-31 19:33N 32°05' W 081°03'6 6.1
2016-Dec-31 18:33N 32°05' W 080°55'6 5.9
2016-Dec-31 17:33N 32°09' W 080°50'1 0.9
2016-Dec-31 16:27N 32°08' W 080°49'0 0.0
2016-Dec-31 15:33N 32°08' W 080°49'0 0.0
2016-Dec-31 14:27N 32°08' W 080°49'0 0.0
2016-Dec-31 13:27N 32°08' W 080°49'4 5.0
2016-Dec-31 12:33N 32°13' W 080°47'7 7.3
2016-Dec-31 11:33N 32°16' W 080°40'  
2016-Dec-25 22:25N 32°14' W 080°47'5 1.8
2016-Dec-25 19:24N 32°08' W 080°49'0 0.0
2016-Dec-25 18:12N 32°08' W 080°49'0 0.0
2016-Dec-25 17:30N 32°08' W 080°49'0 0.0
2016-Dec-25 15:30N 32°08' W 080°49'0 0.0
2016-Dec-25 14:28N 32°08' W 080°49'5 5.3
2016-Dec-25 13:29N 32°06' W 080°54'6 6.2
2016-Dec-25 12:33N 32°06' W 081°01'4 2.9
2016-Dec-25 11:15N 32°05' W 081°06'0 0.0
2016-Dec-25 10:27N 32°05' W 081°06'0 0.0
2016-Dec-25 09:27N 32°05' W 081°06'0 0.0
2016-Dec-25 08:33N 32°05' W 081°06'0 0.0
2016-Dec-25 07:27N 32°05' W 081°06'0 0.0
2016-Dec-25 06:33N 32°05' W 081°06'0 0.0
2016-Dec-25 05:21N 32°05' W 081°06'0 0.0
2016-Dec-25 04:33N 32°05' W 081°06'0 0.0
2016-Dec-25 03:27N 32°05' W 081°06'0 0.0
2016-Dec-25 02:33N 32°05' W 081°06'0 0.0
2016-Dec-25 01:33N 32°05' W 081°06'0 0.0
2016-Dec-25 00:33N 32°05' W 081°06'0 0.0
2016-Dec-24 23:27N 32°05' W 081°06'0 0.0
2016-Dec-24 22:27N 32°05' W 081°06'0 0.0
2016-Dec-24 21:33N 32°05' W 081°06'0 0.0
2016-Dec-24 20:33N 32°05' W 081°06'0 0.0
2016-Dec-24 19:27N 32°05' W 081°06'0 0.0
2016-Dec-24 18:33N 32°05' W 081°06'0 0.0
2016-Dec-24 17:33N 32°05' W 081°06'0 0.0
2016-Dec-24 16:33N 32°05' W 081°06'0 0.0
2016-Dec-24 15:33N 32°05' W 081°06'0 0.0
2016-Dec-24 14:33N 32°05' W 081°06'0 0.0
2016-Dec-24 13:33N 32°05' W 081°06'0 0.0
2016-Dec-24 12:33N 32°05' W 081°06'0 0.0
2016-Dec-24 11:33N 32°05' W 081°06'0 0.0
2016-Dec-24 10:33N 32°05' W 081°06'0 0.0
2016-Dec-24 09:27N 32°05' W 081°06'0 0.0
2016-Dec-24 08:33N 32°05' W 081°06'0 0.0
2016-Dec-24 07:09N 32°05' W 081°06'0 0.0
2016-Dec-24 06:21N 32°05' W 081°06'0 0.0
2016-Dec-24 05:33N 32°05' W 081°06'0 0.0
2016-Dec-24 04:09N 32°05' W 081°06'0 0.0
2016-Dec-24 03:33N 32°05' W 081°06'0 0.0
2016-Dec-24 01:09N 32°05' W 081°06'0 0.0
2016-Dec-24 00:09N 32°05' W 081°06'0 0.0
2016-Dec-23 23:33N 32°05' W 081°06'5 5.4
2016-Dec-23 22:33N 32°05' W 080°59'4 4.1
2016-Dec-23 21:33N 32°02' W 081°03'4 4.3
2016-Dec-23 20:33N 31°58' W 081°03'6 5.8
2016-Dec-23 19:34N 31°52' W 081°05'5 5.4
2016-Dec-23 18:33N 31°49' W 081°10'  

Dump ship's entire track history